ΕΜΥ, Εθνική Μετεωρολογική Υπηρεσία - Δελτία Καιρού, Προγνώσεις

ΑΕΡΟΝΑΥΤΙΛΙΑ

GREEK AIRPORTS CODES

TAF LGTL 010500Z 0106/0115 35015KT 9999 FEW008 BKN020 BKN080 PROB40 TEMPO 0106/0115 5000 RA PROB30 TEMPO 0106/0110 3000 SHRA FEW016TCU BKN020 BKN080 TEMPO 0106/0112 35015G32KT=

EUROPEAN AIRPORTS CODES

LFPO 010600Z AUTO 28005KT 9999 SCT041 06/02 Q1028 NOSIG=